createdAt,value
2022-08-27T00:00:15.272Z,17.90
2022-08-27T00:02:42.840Z,17.80
2022-08-27T00:05:10.865Z,17.90
2022-08-27T00:07:37.704Z,17.90
2022-08-27T00:10:05.663Z,17.80
2022-08-27T00:12:32.841Z,17.90
2022-08-27T00:15:00.466Z,17.90
2022-08-27T00:17:27.502Z,17.90
2022-08-27T00:19:54.326Z,17.90
2022-08-27T00:22:21.166Z,17.90
2022-08-27T00:24:49.159Z,17.90
2022-08-27T00:27:16.305Z,17.90
2022-08-27T00:29:43.115Z,17.90
2022-08-27T00:32:10.086Z,18.00
2022-08-27T00:34:36.916Z,17.90
2022-08-27T00:37:03.894Z,17.90
2022-08-27T00:39:30.732Z,17.80
2022-08-27T00:41:57.550Z,17.90
2022-08-27T00:44:24.350Z,17.90
2022-08-27T00:46:53.808Z,17.90
2022-08-27T00:49:21.837Z,17.90
2022-08-27T00:51:54.106Z,17.80
2022-08-27T00:54:20.940Z,17.80
2022-08-27T00:56:51.904Z,17.80
2022-08-27T00:59:19.429Z,17.80
2022-08-27T01:02:05.591Z,17.80
2022-08-27T01:04:34.534Z,17.80
2022-08-27T01:07:01.511Z,17.90
2022-08-27T01:09:28.379Z,17.70
2022-08-27T01:11:55.724Z,17.70
2022-08-27T01:14:22.562Z,17.60
2022-08-27T01:16:55.331Z,17.50
2022-08-27T01:19:28.802Z,17.60
2022-08-27T01:21:58.570Z,17.60
2022-08-27T01:24:48.840Z,17.50
2022-08-27T01:27:18.058Z,17.50
2022-08-27T01:29:46.110Z,17.50
2022-08-27T01:32:20.115Z,17.60
2022-08-27T01:34:47.554Z,17.50
2022-08-27T01:37:15.027Z,17.50
2022-08-27T01:39:42.724Z,17.40
2022-08-27T01:42:18.406Z,17.50
2022-08-27T01:44:53.308Z,17.40
2022-08-27T01:47:21.309Z,17.40
2022-08-27T01:49:48.188Z,17.40
2022-08-27T01:52:15.946Z,17.40
2022-08-27T01:54:42.849Z,17.40
2022-08-27T01:57:09.967Z,17.40
2022-08-27T01:59:39.786Z,17.70
2022-08-27T02:02:07.679Z,17.50
2022-08-27T02:04:34.687Z,17.50
2022-08-27T02:07:01.633Z,17.60
2022-08-27T02:09:28.476Z,17.50
2022-08-27T02:11:55.337Z,17.50
2022-08-27T02:14:22.824Z,17.50
2022-08-27T02:16:52.380Z,17.50
2022-08-27T02:19:19.790Z,17.50
2022-08-27T02:21:47.382Z,17.50
2022-08-27T02:24:14.211Z,17.90
2022-08-27T02:26:41.607Z,17.60
2022-08-27T02:29:08.479Z,17.60
2022-08-27T02:31:35.413Z,17.60
2022-08-27T02:34:02.347Z,17.70
2022-08-27T02:36:29.174Z,17.60
2022-08-27T02:38:56.286Z,17.60
2022-08-27T02:41:23.354Z,18.00
2022-08-27T02:43:50.282Z,17.60
2022-08-27T02:46:17.272Z,17.50
2022-08-27T02:48:44.736Z,17.60
2022-08-27T02:51:11.571Z,17.50
2022-08-27T02:53:38.386Z,17.50
2022-08-27T02:56:06.248Z,17.50
2022-08-27T02:58:33.737Z,17.50
2022-08-27T03:01:01.843Z,17.50
2022-08-27T03:03:31.804Z,17.50
2022-08-27T03:05:59.274Z,17.50
2022-08-27T03:08:26.907Z,17.50
2022-08-27T03:10:55.994Z,17.40
2022-08-27T03:13:23.391Z,17.40
2022-08-27T03:15:50.250Z,17.30
2022-08-27T03:18:18.377Z,17.30
2022-08-27T03:20:47.498Z,17.40
2022-08-27T03:23:17.557Z,17.30
2022-08-27T03:25:51.215Z,17.20
2022-08-27T03:28:23.844Z,17.20
2022-08-27T03:30:52.760Z,17.30
2022-08-27T03:33:20.363Z,17.90
2022-08-27T03:35:51.708Z,17.20
2022-08-27T03:38:19.036Z,18.20
2022-08-27T03:40:45.837Z,17.30
2022-08-27T03:43:13.474Z,17.20
2022-08-27T03:46:01.046Z,17.20
2022-08-27T03:48:30.324Z,17.20
2022-08-27T03:50:57.344Z,17.20
2022-08-27T03:53:24.222Z,17.20
2022-08-27T03:55:51.064Z,17.20
2022-08-27T03:58:18.068Z,17.20
2022-08-27T04:00:45.031Z,17.20
2022-08-27T04:03:15.293Z,17.20
2022-08-27T04:05:45.572Z,17.20
2022-08-27T04:08:12.977Z,17.20
2022-08-27T04:10:42.329Z,17.20
2022-08-27T04:13:09.216Z,17.20
2022-08-27T04:15:38.187Z,17.20
2022-08-27T04:18:07.706Z,17.20
2022-08-27T04:20:35.986Z,17.20
2022-08-27T04:23:03.783Z,17.20
2022-08-27T04:25:30.778Z,17.20
2022-08-27T04:27:57.852Z,17.30
2022-08-27T04:30:24.839Z,17.20
2022-08-27T04:32:51.721Z,17.40
2022-08-27T04:35:18.671Z,17.20
2022-08-27T04:37:45.604Z,17.20
2022-08-27T04:40:12.528Z,17.10
2022-08-27T04:42:39.506Z,17.20
2022-08-27T04:45:06.745Z,17.10
2022-08-27T04:47:33.665Z,17.10
2022-08-27T04:50:00.562Z,17.40
2022-08-27T04:52:30.059Z,17.10
2022-08-27T04:59:17.274Z,17.00
2022-08-27T05:01:44.259Z,17.10
2022-08-27T05:04:12.501Z,17.10
2022-08-27T05:06:39.308Z,17.10
2022-08-27T05:09:06.172Z,17.10
2022-08-27T05:11:34.586Z,17.10
2022-08-27T05:14:05.617Z,17.10
2022-08-27T05:16:32.637Z,17.10
2022-08-27T05:18:59.920Z,17.20
2022-08-27T05:21:28.678Z,17.20
2022-08-27T05:23:56.525Z,17.40
2022-08-27T05:26:23.366Z,17.70
2022-08-27T05:28:50.225Z,17.20
2022-08-27T05:31:17.324Z,17.30
2022-08-27T05:33:44.423Z,17.30
2022-08-27T05:36:22.782Z,17.30
2022-08-27T05:38:50.441Z,17.30
2022-08-27T05:41:19.267Z,17.40
2022-08-27T05:43:49.865Z,17.40
2022-08-27T05:46:18.752Z,17.40
2022-08-27T05:48:45.806Z,17.50
2022-08-27T05:51:25.343Z,17.40
2022-08-27T05:54:04.565Z,17.50
2022-08-27T05:56:35.335Z,17.60
2022-08-27T05:59:20.841Z,17.60
2022-08-27T06:01:49.586Z,17.70
2022-08-27T06:04:17.929Z,17.60
2022-08-27T06:11:11.686Z,17.70
2022-08-27T06:13:38.573Z,17.90
2022-08-27T06:16:10.027Z,17.80
2022-08-27T06:18:38.407Z,17.90
2022-08-27T06:21:05.598Z,17.90
2022-08-27T06:23:32.446Z,18.00
2022-08-27T06:25:59.606Z,18.00
2022-08-27T06:28:29.584Z,18.40
2022-08-27T06:31:25.948Z,18.10
2022-08-27T06:33:53.767Z,18.10
2022-08-27T06:36:22.644Z,18.20
2022-08-27T06:38:49.816Z,18.20
2022-08-27T06:41:23.460Z,18.30
2022-08-27T06:43:50.894Z,18.40
2022-08-27T06:46:18.588Z,18.50
2022-08-27T06:48:46.865Z,18.50
2022-08-27T06:51:14.765Z,18.60
2022-08-27T06:53:41.738Z,18.70
2022-08-27T06:56:09.302Z,18.70
2022-08-27T06:58:36.273Z,18.80
2022-08-27T07:01:06.763Z,18.80
2022-08-27T07:03:33.668Z,18.80
2022-08-27T07:06:07.632Z,18.90
2022-08-27T07:08:34.862Z,18.90
2022-08-27T07:11:01.943Z,18.90
2022-08-27T07:13:29.584Z,18.90
2022-08-27T07:15:57.028Z,19.00
2022-08-27T07:18:27.303Z,19.00
2022-08-27T07:20:54.866Z,19.10
2022-08-27T07:23:21.779Z,19.10
2022-08-27T07:25:48.616Z,19.20
2022-08-27T07:28:15.717Z,19.20
2022-08-27T07:30:42.804Z,19.30
2022-08-27T07:33:09.963Z,19.40
2022-08-27T07:35:36.789Z,19.40
2022-08-27T07:38:03.803Z,19.50
2022-08-27T07:40:30.791Z,19.60
2022-08-27T07:43:16.282Z,19.80
2022-08-27T07:45:48.312Z,19.90
2022-08-27T07:48:16.408Z,20.10
2022-08-27T07:50:43.647Z,20.20
2022-08-27T07:53:10.503Z,20.20
2022-08-27T07:55:38.381Z,20.30
2022-08-27T07:58:05.568Z,20.30
2022-08-27T08:00:40.475Z,20.40
2022-08-27T08:03:07.311Z,20.40
2022-08-27T08:05:34.133Z,20.40
2022-08-27T08:08:01.005Z,20.40
2022-08-27T08:10:29.005Z,20.40
2022-08-27T08:12:57.245Z,20.40
2022-08-27T08:15:24.046Z,20.50
2022-08-27T08:17:51.284Z,20.50
2022-08-27T08:20:27.460Z,20.50
2022-08-27T08:23:06.396Z,20.50
2022-08-27T08:25:38.534Z,20.50
2022-08-27T08:28:05.742Z,20.60
2022-08-27T08:30:33.172Z,20.70
2022-08-27T08:33:02.288Z,20.80
2022-08-27T08:35:34.928Z,20.90
2022-08-27T08:38:07.399Z,21.00
2022-08-27T08:40:43.081Z,21.20
2022-08-27T08:43:36.710Z,21.30
2022-08-27T08:46:25.715Z,21.30
2022-08-27T08:48:54.518Z,21.40
2022-08-27T08:51:40.619Z,21.40
2022-08-27T08:54:18.436Z,21.50
2022-08-27T08:57:00.410Z,21.70
2022-08-27T08:59:33.770Z,21.80
2022-08-27T09:02:00.541Z,21.90
2022-08-27T09:04:27.476Z,22.00
2022-08-27T09:06:55.670Z,22.20
2022-08-27T09:09:44.637Z,22.20
2022-08-27T09:12:25.071Z,22.30
2022-08-27T09:15:12.313Z,22.20
2022-08-27T09:17:40.277Z,22.30
2022-08-27T09:20:08.837Z,22.30
2022-08-27T09:22:43.122Z,22.20
2022-08-27T09:25:21.108Z,22.20
2022-08-27T09:27:48.790Z,22.20
2022-08-27T09:30:29.929Z,22.20
2022-08-27T09:33:04.265Z,22.30
2022-08-27T09:35:45.710Z,22.40
2022-08-27T09:38:23.669Z,22.60
2022-08-27T09:40:51.930Z,22.70
2022-08-27T09:43:23.751Z,22.80
2022-08-27T09:45:56.096Z,23.00
2022-08-27T09:48:28.290Z,23.10
2022-08-27T09:50:59.725Z,23.00
2022-08-27T09:53:58.593Z,23.10
2022-08-27T09:56:39.362Z,23.10
2022-08-27T09:59:27.911Z,23.20
2022-08-27T10:02:06.605Z,23.30
2022-08-27T10:04:50.983Z,23.50
2022-08-27T10:07:26.502Z,23.80
2022-08-27T10:10:13.323Z,24.00
2022-08-27T10:12:58.559Z,24.20
2022-08-27T10:15:28.333Z,24.10
2022-08-27T10:18:12.268Z,24.10
2022-08-27T10:20:51.721Z,23.80
2022-08-27T10:23:32.654Z,23.60
2022-08-27T10:26:11.846Z,23.40
2022-08-27T10:28:47.858Z,23.20
2022-08-27T10:31:40.195Z,23.00
2022-08-27T10:34:23.133Z,22.80
2022-08-27T10:36:56.784Z,22.70
2022-08-27T10:39:41.682Z,22.60
2022-08-27T10:42:19.119Z,22.50
2022-08-27T10:44:51.697Z,22.40
2022-08-27T10:47:24.088Z,22.40
2022-08-27T10:50:36.976Z,22.30
2022-08-27T10:53:17.331Z,22.30
2022-08-27T10:55:51.382Z,22.20
2022-08-27T10:58:41.639Z,22.10
2022-08-27T11:01:43.413Z,22.00
2022-08-27T11:04:28.633Z,21.90
2022-08-27T11:07:25.940Z,21.80
2022-08-27T11:10:34.173Z,21.70
2022-08-27T11:13:05.874Z,21.70
2022-08-27T11:15:37.266Z,21.70
2022-08-27T11:18:08.197Z,21.70
2022-08-27T11:20:57.615Z,21.70
2022-08-27T11:23:28.750Z,21.80
2022-08-27T11:26:01.569Z,19.60
2022-08-27T11:28:47.920Z,21.90
2022-08-27T11:31:44.292Z,22.00
2022-08-27T11:34:15.702Z,22.20
2022-08-27T11:37:03.932Z,22.30
2022-08-27T11:39:58.685Z,22.40
2022-08-27T11:42:58.279Z,22.50
2022-08-27T11:45:34.806Z,22.70
2022-08-27T11:48:03.061Z,22.90
2022-08-27T11:50:31.146Z,23.30
2022-08-27T11:52:59.284Z,23.50
2022-08-27T11:55:30.860Z,23.90
2022-08-27T11:58:10.249Z,24.10
2022-08-27T12:00:39.311Z,24.20
2022-08-27T12:03:30.801Z,24.30
2022-08-27T12:05:59.253Z,24.50
2022-08-27T12:08:30.001Z,24.60
2022-08-27T12:11:18.781Z,24.70
2022-08-27T12:14:04.387Z,24.60
2022-08-27T12:16:58.424Z,24.60
2022-08-27T12:19:51.526Z,24.60
2022-08-27T12:22:56.842Z,24.50
2022-08-27T12:25:23.807Z,24.50
2022-08-27T12:28:26.070Z,24.50
2022-08-27T12:30:53.460Z,24.60
2022-08-27T12:33:23.426Z,24.70
2022-08-27T12:35:51.612Z,24.80
2022-08-27T12:38:37.167Z,24.80
2022-08-27T12:41:08.879Z,24.70
2022-08-27T12:43:38.296Z,24.50
2022-08-27T12:46:15.947Z,24.40
2022-08-27T12:48:44.447Z,24.50
2022-08-27T12:51:14.564Z,24.60
2022-08-27T12:53:43.072Z,24.80
2022-08-27T12:56:19.099Z,24.80
2022-08-27T12:59:05.430Z,25.00
2022-08-27T13:01:46.807Z,25.00
2022-08-27T13:04:31.820Z,25.00
2022-08-27T13:06:58.702Z,25.10
2022-08-27T13:09:30.847Z,25.20
2022-08-27T13:11:59.532Z,25.30
2022-08-27T13:14:27.587Z,25.40
2022-08-27T13:16:59.430Z,25.60
2022-08-27T13:19:49.181Z,25.70
2022-08-27T13:22:24.589Z,26.00
2022-08-27T13:24:53.542Z,26.10
2022-08-27T13:27:25.963Z,26.00
2022-08-27T13:29:52.796Z,25.80
2022-08-27T13:32:19.648Z,25.70
2022-08-27T13:34:46.476Z,25.40
2022-08-27T13:37:33.645Z,25.30
2022-08-27T13:40:00.568Z,25.00
2022-08-27T13:42:27.800Z,24.90
2022-08-27T13:45:01.644Z,24.80
2022-08-27T13:47:28.701Z,24.60
2022-08-27T13:50:07.567Z,24.30
2022-08-27T13:52:35.703Z,24.20
2022-08-27T13:55:10.706Z,24.00
2022-08-27T13:57:45.531Z,23.90
2022-08-27T14:00:15.765Z,23.80
2022-08-27T14:02:42.745Z,23.70
2022-08-27T14:05:25.519Z,23.60
2022-08-27T14:07:58.268Z,23.60
2022-08-27T14:10:44.118Z,23.60
2022-08-27T14:13:21.629Z,23.60
2022-08-27T14:15:56.096Z,23.60
2022-08-27T14:18:55.037Z,23.70
2022-08-27T14:21:17.174Z,23.70
2022-08-27T14:23:44.053Z,23.70
2022-08-27T14:26:10.883Z,23.70
2022-08-27T14:28:38.117Z,23.70
2022-08-27T14:31:05.048Z,23.60
2022-08-27T14:33:31.939Z,23.60
2022-08-27T14:35:59.358Z,23.50
2022-08-27T14:38:31.983Z,23.50
2022-08-27T14:40:58.918Z,23.40
2022-08-27T14:43:25.793Z,23.30
2022-08-27T14:45:52.678Z,23.20
2022-08-27T14:48:28.887Z,23.10
2022-08-27T14:50:56.666Z,23.00
2022-08-27T14:53:24.076Z,22.80
2022-08-27T14:55:52.072Z,22.60
2022-08-27T14:58:19.505Z,22.50
2022-08-27T15:00:46.433Z,22.40
2022-08-27T15:03:13.258Z,22.30
2022-08-27T15:05:40.120Z,22.20
2022-08-27T15:08:08.333Z,22.10
2022-08-27T15:10:39.686Z,22.00
2022-08-27T15:13:06.572Z,21.90
2022-08-27T15:15:33.418Z,21.80
2022-08-27T15:18:18.705Z,21.70
2022-08-27T15:20:45.565Z,23.50
2022-08-27T15:23:12.530Z,21.60
2022-08-27T15:25:39.986Z,21.50
2022-08-27T15:28:06.976Z,21.50
2022-08-27T15:30:33.806Z,21.40
2022-08-27T15:33:00.877Z,21.40
2022-08-27T15:35:27.837Z,21.50
2022-08-27T15:37:58.044Z,21.40
2022-08-27T15:40:25.816Z,21.40
2022-08-27T15:42:56.278Z,21.40
2022-08-27T15:45:25.503Z,21.40
2022-08-27T15:47:52.681Z,21.40
2022-08-27T15:50:19.537Z,21.40
2022-08-27T15:52:46.361Z,21.40
2022-08-27T15:55:24.713Z,21.40
2022-08-27T15:57:51.742Z,21.40
2022-08-27T16:00:18.978Z,21.50
2022-08-27T16:02:46.197Z,21.60
2022-08-27T16:05:13.353Z,21.70
2022-08-27T16:07:40.209Z,21.90
2022-08-27T16:10:07.285Z,21.90
2022-08-27T16:12:34.466Z,22.10
2022-08-27T16:15:01.781Z,22.20
2022-08-27T16:17:28.695Z,22.40
2022-08-27T16:19:55.637Z,22.50
2022-08-27T16:22:22.539Z,22.70
2022-08-27T16:24:49.535Z,22.90
2022-08-27T16:27:16.424Z,23.30
2022-08-27T16:29:43.270Z,23.80
2022-08-27T16:32:14.153Z,24.20
2022-08-27T16:34:40.993Z,24.60
2022-08-27T16:37:07.911Z,24.80
2022-08-27T16:39:39.982Z,24.80
2022-08-27T16:42:10.130Z,24.80
2022-08-27T16:44:37.858Z,24.80
2022-08-27T16:47:06.092Z,24.70
2022-08-27T16:49:51.743Z,24.60
2022-08-27T16:52:20.836Z,24.60
2022-08-27T16:54:47.805Z,25.10
2022-08-27T16:57:14.840Z,25.60
2022-08-27T16:59:41.740Z,26.20
2022-08-27T17:02:32.570Z,26.60
2022-08-27T17:05:12.359Z,27.00
2022-08-27T17:07:48.879Z,27.30
2022-08-27T17:10:19.314Z,27.50
2022-08-27T17:12:47.993Z,27.50
2022-08-27T17:15:18.170Z,27.60
2022-08-27T17:17:45.290Z,27.60
2022-08-27T17:20:12.786Z,27.50
2022-08-27T17:22:39.650Z,27.40
2022-08-27T17:25:07.123Z,27.00
2022-08-27T17:27:34.022Z,26.60
2022-08-27T17:30:00.846Z,26.00
2022-08-27T17:32:27.697Z,25.50
2022-08-27T17:34:54.526Z,25.00
2022-08-27T17:37:21.422Z,24.50
2022-08-27T17:39:48.663Z,24.00
2022-08-27T17:42:15.522Z,23.70
2022-08-27T17:44:42.510Z,23.40
2022-08-27T17:47:10.375Z,23.10
2022-08-27T17:49:37.531Z,22.80
2022-08-27T17:52:07.118Z,22.50
2022-08-27T17:54:35.790Z,22.20
2022-08-27T17:57:04.336Z,21.90
2022-08-27T17:59:31.357Z,21.60
2022-08-27T18:01:58.210Z,21.40
2022-08-27T18:04:25.087Z,21.20
2022-08-27T18:06:51.947Z,21.00
2022-08-27T18:09:18.836Z,20.80
2022-08-27T18:11:46.346Z,20.70
2022-08-27T18:14:13.560Z,20.60
2022-08-27T18:16:45.445Z,20.50
2022-08-27T18:19:12.364Z,20.30
2022-08-27T18:21:46.505Z,20.20
2022-08-27T18:24:14.871Z,20.10
2022-08-27T18:26:41.709Z,20.00
2022-08-27T18:29:08.701Z,19.80
2022-08-27T18:31:35.544Z,19.70
2022-08-27T18:34:02.500Z,19.60
2022-08-27T18:36:29.474Z,19.50
2022-08-27T18:38:56.379Z,19.40
2022-08-27T18:41:23.869Z,19.30
2022-08-27T18:43:50.891Z,19.30
2022-08-27T18:46:18.034Z,19.20
2022-08-27T18:48:44.936Z,19.10
2022-08-27T18:51:13.134Z,19.10
2022-08-27T18:53:40.548Z,19.00
2022-08-27T18:56:08.676Z,18.90
2022-08-27T18:58:38.514Z,18.90
2022-08-27T19:01:07.312Z,18.80
2022-08-27T19:03:44.824Z,18.70
2022-08-27T19:06:11.814Z,18.70
2022-08-27T19:08:39.484Z,18.60
2022-08-27T19:11:06.444Z,18.60
2022-08-27T19:13:33.783Z,18.50
2022-08-27T19:16:05.581Z,18.50
2022-08-27T19:18:34.198Z,18.40
2022-08-27T19:21:01.003Z,18.40
2022-08-27T19:23:27.844Z,18.30
2022-08-27T19:25:54.712Z,18.30
2022-08-27T19:28:27.060Z,18.30
2022-08-27T19:30:53.911Z,18.20
2022-08-27T19:33:22.462Z,18.20
2022-08-27T19:35:49.409Z,18.10
2022-08-27T19:38:16.398Z,18.10
2022-08-27T19:40:43.393Z,18.10
2022-08-27T19:43:10.245Z,18.00
2022-08-27T19:45:40.287Z,18.00
2022-08-27T19:48:08.086Z,18.00
2022-08-27T19:50:35.034Z,17.90
2022-08-27T19:53:01.909Z,17.90
2022-08-27T19:55:28.804Z,18.80
2022-08-27T19:57:55.648Z,17.80
2022-08-27T20:00:22.972Z,17.80
2022-08-27T20:02:50.881Z,17.80
2022-08-27T20:05:19.930Z,17.80
2022-08-27T20:07:48.889Z,17.80
2022-08-27T20:10:16.565Z,17.70
2022-08-27T20:12:43.679Z,17.70
2022-08-27T20:15:11.024Z,17.70
2022-08-27T20:17:37.868Z,17.60
2022-08-27T20:20:06.597Z,17.60
2022-08-27T20:22:33.480Z,17.60
2022-08-27T20:25:00.420Z,17.60
2022-08-27T20:27:27.261Z,17.60
2022-08-27T20:29:54.936Z,17.60
2022-08-27T20:32:24.800Z,17.50
2022-08-27T20:34:54.765Z,17.50
2022-08-27T20:37:21.681Z,17.50
2022-08-27T20:39:48.472Z,17.50
2022-08-27T20:42:15.370Z,17.50
2022-08-27T20:44:42.200Z,17.40
2022-08-27T20:47:09.076Z,17.40
2022-08-27T20:49:35.992Z,17.40
2022-08-27T20:52:05.884Z,17.30
